Power, Montana
Current Conditions -  °F | °C
As of 4:53 AM on Monday 24 Nov 2014 (Local Time) from KGTF Reporting Station
Clear Clear  
Wind Chill: 22°   Ceiling: Unl
Heat Index: 32°   Visibility: 10mi
Dew Point: 20°   Wind: 14mph
Humidity: 61%   Direction: 280°W
Pressure: 29.96"   Gusts: NA
Location:  47.71°N, 111.69°W
Report Text: KGTF 241153Z 28012KT 10SM CLR 00/M07 A2996 RMK AO2 SLP179 T00001067 10033 20000 51025
Loading
Personal Weather Stations






























Interactive Weather Map New forecast layout! Learn more

10-Day Weather Forecast

Advertisements
Track Severe Weather on mobile